Terminal Aerodrome Forecast
Issued by NWS

Home | Current Version | Previous Version | Text Only | Print | Product List | Glossary On
Versions: 1 2 3 4 5 6 7 8 9 10 11 12 13 14 15 16 17
467
FTUS43 KGRB 100215 AAA
TAFCWA
TAF AMD
KCWA 100215Z 1002/1024 33010G16KT P6SM SCT025 BKN035
      TEMPO 1002/1004 BKN025
     FM100400 32010KT P6SM BKN040
      TEMPO 1008/1012 SCT040
     FM101200 31008KT P6SM SCT040
      AMD LTD TO CLD VIS AND WND 1003/1011=

USA.gov is the U.S. government's official web portal to all federal, state and local government web resources and services.